Time;durP1;ratioP1;P1;durP2;ratioP2;P2;SDS_P1;SDS_P2;PMS_P1;PMS_P2;Temp;Humidity;BMP_temperature;BMP_pressure;BME280_temperature;BME280_humidity;BME280_pressure;Samples;Min_cycle;Max_cycle;Signal;HPM_P1;HPM_P2
2023/12/14 00:00:18;;;;;;;2.97;2.27;;;;;;;8.21;100.00;99246.09;5057506;28;20247;-76
2023/12/14 00:02:43;;;;;;;3.00;2.70;;;;;;;8.18;100.00;99253.88;5059026;28;20205;-77
2023/12/14 00:05:08;;;;;;;2.80;2.60;;;;;;;8.13;100.00;99255.69;5055637;28;20716;-76
2023/12/14 00:07:34;;;;;;;2.83;2.53;;;;;;;8.11;100.00;99260.00;5055571;28;20893;-77
2023/12/14 00:09:59;;;;;;;2.60;2.40;;;;;;;8.08;100.00;99263.50;5061599;28;20186;-76
2023/12/14 00:12:24;;;;;;;3.93;2.97;;;;;;;8.10;100.00;99266.88;5059754;28;20225;-76
2023/12/14 00:14:50;;;;;;;3.83;2.90;;;;;;;8.09;100.00;99267.78;5058886;28;20589;-77
2023/12/14 00:17:15;;;;;;;2.80;2.60;;;;;;;8.07;100.00;99270.34;5062565;28;20287;-74
2023/12/14 00:19:41;;;;;;;2.93;2.73;;;;;;;8.04;100.00;99279.88;5066174;28;20303;-76
2023/12/14 00:22:06;;;;;;;3.60;3.30;;;;;;;8.06;100.00;99280.69;5059862;28;20261;-76
2023/12/14 00:24:31;;;;;;;4.00;3.60;;;;;;;8.06;100.00;99278.13;5060620;28;20311;-77
2023/12/14 00:26:56;;;;;;;3.67;3.37;;;;;;;8.04;100.00;99285.84;5064967;28;20197;-77
2023/12/14 00:29:22;;;;;;;3.80;3.50;;;;;;;8.02;100.00;99292.75;5066801;28;20189;-75
2023/12/14 00:31:47;;;;;;;4.00;3.40;;;;;;;8.01;100.00;99288.50;5067356;28;20190;-76
2023/12/14 00:34:12;;;;;;;3.50;3.20;;;;;;;8.00;100.00;99291.09;5060307;28;20222;-76
2023/12/14 00:36:38;;;;;;;5.77;4.03;;;;;;;8.00;100.00;99293.66;5061425;28;20213;-76
2023/12/14 00:39:04;;;;;;;3.90;3.50;;;;;;;7.97;100.00;99298.84;5056631;28;20206;-77
2023/12/14 00:41:29;;;;;;;4.10;3.80;;;;;;;7.96;100.00;99298.00;5054568;28;20220;-76
2023/12/14 00:43:55;;;;;;;4.40;3.60;;;;;;;7.93;100.00;99300.63;5054516;28;20181;-76
2023/12/14 00:46:20;;;;;;;4.50;4.10;;;;;;;7.92;100.00;99304.06;5054464;28;20244;-76
2023/12/14 00:48:45;;;;;;;5.80;4.43;;;;;;;7.89;100.00;99301.53;5057570;28;20196;-76
2023/12/14 00:51:11;;;;;;;4.50;4.10;;;;;;;7.84;100.00;99306.75;5057089;28;20217;-76
2023/12/14 00:53:36;;;;;;;4.33;3.93;;;;;;;7.83;100.00;99319.66;5054657;28;20276;-76
2023/12/14 00:56:01;;;;;;;4.83;4.40;;;;;;;7.82;100.00;99313.66;5053497;28;20198;-76
2023/12/14 00:58:27;;;;;;;4.67;4.27;;;;;;;7.84;100.00;99324.78;5057443;28;20184;-75
2023/12/14 01:00:54;;;;;;;5.17;4.77;;;;;;;7.88;100.00;99326.47;5057395;28;20186;-75
2023/12/14 01:03:19;;;;;;;5.07;4.67;;;;;;;7.89;100.00;99332.44;5057533;28;20290;-76
2023/12/14 01:05:45;;;;;;;4.80;4.40;;;;;;;7.93;100.00;99341.84;5056235;28;20221;-77
2023/12/14 01:08:10;;;;;;;4.63;4.20;;;;;;;7.96;100.00;99338.38;5054200;28;20233;-76
2023/12/14 01:10:35;;;;;;;4.83;4.43;;;;;;;8.00;100.00;99343.47;5054687;28;20193;-75
2023/12/14 01:13:01;;;;;;;5.40;4.90;;;;;;;8.06;100.00;99348.53;5055194;28;20736;-76
2023/12/14 01:15:26;;;;;;;5.57;4.93;;;;;;;8.08;100.00;99345.97;5055791;28;20218;-76
2023/12/14 01:17:51;;;;;;;4.93;4.53;;;;;;;8.11;100.00;99356.19;5054471;28;20193;-75
2023/12/14 01:20:16;;;;;;;4.67;4.27;;;;;;;8.13;100.00;99362.19;5056794;28;20252;-75
2023/12/14 01:22:42;;;;;;;5.30;4.80;;;;;;;8.13;100.00;99364.75;5054414;28;20232;-76
2023/12/14 01:25:07;;;;;;;5.70;5.20;;;;;;;8.14;100.00;99373.38;5057099;28;20228;-75
2023/12/14 01:27:33;;;;;;;5.00;4.57;;;;;;;8.12;100.00;99369.94;5060617;28;20689;-75
2023/12/14 01:29:58;;;;;;;4.83;4.37;;;;;;;8.11;100.00;99371.66;5061187;28;20221;-75
2023/12/14 01:32:23;;;;;;;4.27;3.87;;;;;;;8.13;100.00;99374.25;5059873;28;20189;-76
2023/12/14 01:34:48;;;;;;;4.93;4.30;;;;;;;8.14;100.00;99389.66;5060233;28;20214;-76
2023/12/14 01:37:14;;;;;;;4.50;4.10;;;;;;;8.18;100.00;99388.75;5061401;28;20199;-76
2023/12/14 01:39:39;;;;;;;4.20;3.90;;;;;;;8.19;100.00;99394.75;5061311;28;20213;-75
2023/12/14 01:42:05;;;;;;;4.67;4.27;;;;;;;8.18;100.00;99390.47;5060307;28;21484;-76
2023/12/14 01:44:30;;;;;;;4.37;4.00;;;;;;;8.18;100.00;99399.06;5060981;28;20255;-77
2023/12/14 01:46:55;;;;;;;4.27;3.83;;;;;;;8.20;100.00;99402.47;5060893;28;20194;-76
2023/12/14 01:49:20;;;;;;;5.37;4.27;;;;;;;8.21;100.00;99406.75;5058675;28;20578;-76
2023/12/14 01:51:46;;;;;;;4.10;3.80;;;;;;;8.18;100.00;99406.81;5059299;28;20711;-76
2023/12/14 01:54:11;;;;;;;4.50;4.07;;;;;;;8.17;100.00;99409.38;5059157;28;20182;-76
2023/12/14 01:56:37;;;;;;;4.80;4.40;;;;;;;8.18;100.00;99416.25;5057749;28;20202;-76
2023/12/14 01:59:02;;;;;;;4.80;4.33;;;;;;;8.17;100.00;99411.97;5058845;28;20482;-76
2023/12/14 02:01:52;;;;;;;4.23;3.93;;;;;;;8.18;100.00;99424.84;5061886;28;20227;-77
2023/12/14 02:04:17;;;;;;;4.53;4.13;;;;;;;8.16;100.00;99423.16;5057873;28;20194;-76
2023/12/14 02:06:43;;;;;;;4.20;3.90;;;;;;;8.17;100.00;99424.84;5058151;28;20214;-76
2023/12/14 02:09:09;;;;;;;4.30;3.97;;;;;;;8.18;100.00;99424.84;5058253;28;20193;-76
2023/12/14 02:11:35;;;;;;;5.43;4.70;;;;;;;8.22;100.00;99430.81;5061538;28;20185;-76
2023/12/14 02:14:11;;;;;;;5.30;4.80;;;;;;;8.22;100.00;99435.97;5060064;28;21006;-75
2023/12/14 02:16:38;;;;;;;5.27;4.67;;;;;;;8.22;100.00;99434.25;5059798;28;20209;-76
2023/12/14 02:19:04;;;;;;;6.10;5.47;;;;;;;8.21;100.00;99436.81;5059052;28;20236;-74
2023/12/14 02:21:29;;;;;;;6.07;5.47;;;;;;;8.23;100.00;99435.97;5055363;28;20276;-77
2023/12/14 02:23:55;;;;;;;5.47;5.00;;;;;;;8.20;100.00;99441.16;5058441;28;20242;-76
2023/12/14 02:26:20;;;;;;;6.17;5.60;;;;;;;8.19;100.00;99436.84;5060242;28;20312;-76
2023/12/14 02:28:45;;;;;;;5.23;4.83;;;;;;;8.17;100.00;99437.72;5060519;28;20201;-76
2023/12/14 02:31:10;;;;;;;5.50;5.00;;;;;;;8.13;100.00;99442.06;5058341;28;20186;-76
2023/12/14 02:33:36;;;;;;;4.90;4.50;;;;;;;8.13;100.00;99448.97;5061149;28;20204;-76
2023/12/14 02:36:03;;;;;;;5.17;4.70;;;;;;;8.13;100.00;99452.38;5060494;28;20213;-76
2023/12/14 02:38:29;;;;;;;5.10;4.70;;;;;;;8.17;100.00;99450.63;5058808;28;20197;-76
2023/12/14 02:40:54;;;;;;;5.50;5.03;;;;;;;8.22;100.00;99456.56;5061760;28;20213;-76
2023/12/14 02:43:19;;;;;;;4.97;4.57;;;;;;;8.22;100.00;99464.31;5060152;28;20191;-76
2023/12/14 02:45:45;;;;;;;5.57;5.07;;;;;;;8.24;100.00;99458.25;5064009;28;20667;-76
2023/12/14 02:48:11;;;;;;;5.33;4.93;;;;;;;8.24;100.00;99465.16;5058245;28;20196;-76
2023/12/14 02:50:37;;;;;;;5.10;4.60;;;;;;;8.24;100.00;99462.56;5057440;28;20210;-76
2023/12/14 02:53:02;;;;;;;5.27;4.83;;;;;;;8.25;100.00;99466.84;5058211;28;20189;-76
2023/12/14 02:55:28;;;;;;;4.93;4.53;;;;;;;8.26;100.00;99471.13;5058235;28;20251;-76
2023/12/14 02:57:53;;;;;;;5.37;4.97;;;;;;;8.25;100.00;99472.00;5055946;28;20219;-76
2023/12/14 03:00:19;;;;;;;5.90;5.40;;;;;;;8.26;100.00;99480.59;5066345;28;20196;-76
2023/12/14 03:02:44;;;;;;;5.93;5.43;;;;;;;8.24;100.00;99483.19;5065573;28;20215;-76
2023/12/14 03:05:09;;;;;;;6.10;5.50;;;;;;;8.26;100.00;99486.59;5059193;28;20223;-76
2023/12/14 03:07:35;;;;;;;6.77;5.97;;;;;;;8.24;100.00;99489.19;5065111;28;20212;-76
2023/12/14 03:10:00;;;;;;;6.80;6.20;;;;;;;8.23;100.00;99491.78;5061545;28;20194;-77
2023/12/14 03:12:25;;;;;;;5.40;5.00;;;;;;;8.20;100.00;99503.00;5055250;28;20197;-76
2023/12/14 03:14:51;;;;;;;6.07;5.53;;;;;;;8.19;100.00;99498.72;5062274;28;20213;-76
2023/12/14 03:17:17;;;;;;;6.17;5.57;;;;;;;8.21;100.00;99496.97;5061226;28;20186;-75
2023/12/14 03:19:42;;;;;;;5.37;4.97;;;;;;;8.24;100.00;99506.38;5062000;28;20215;-75
2023/12/14 03:22:08;;;;;;;5.83;5.43;;;;;;;8.27;100.00;99503.78;5060153;28;20196;-76
2023/12/14 03:24:35;;;;;;;6.20;5.70;;;;;;;8.30;100.00;99501.19;5056764;28;20523;-77
2023/12/14 03:27:02;;;;;;;5.57;5.17;;;;;;;8.30;100.00;99511.47;5059817;28;20190;-75
2023/12/14 03:29:27;;;;;;;5.63;5.13;;;;;;;8.32;100.00;99509.72;5056892;28;20193;-76
2023/12/14 03:31:52;;;;;;;5.33;4.93;;;;;;;8.34;100.00;99514.88;5057241;28;20189;-75
2023/12/14 03:34:18;;;;;;;4.97;4.57;;;;;;;8.36;100.00;99518.28;5059571;28;20618;-74
2023/12/14 03:36:43;;;;;;;5.83;5.33;;;;;;;8.38;100.00;99519.97;5058158;28;20292;-75
2023/12/14 03:39:08;;;;;;;5.57;5.10;;;;;;;8.43;100.00;99526.81;5063206;28;20866;-76
2023/12/14 03:41:34;;;;;;;5.47;4.97;;;;;;;8.43;100.00;99535.38;5058499;28;20276;-77
2023/12/14 03:43:59;;;;;;;5.57;5.13;;;;;;;8.46;100.00;99529.34;5059615;28;20232;-77
2023/12/14 03:46:24;;;;;;;5.23;4.83;;;;;;;8.47;100.00;99539.63;5056039;28;20233;-76
2023/12/14 03:48:50;;;;;;;5.17;4.77;;;;;;;8.46;100.00;99540.50;5057827;28;20233;-76
2023/12/14 03:51:19;;;;;;;4.50;4.20;;;;;;;8.46;100.00;99553.38;5058021;28;20210;-75
2023/12/14 03:53:45;;;;;;;5.20;4.77;;;;;;;8.48;100.00;99553.38;5058775;28;20196;-76
2023/12/14 03:56:10;;;;;;;5.00;4.60;;;;;;;8.50;100.00;99559.38;5060581;28;20213;-77
2023/12/14 03:58:36;;;;;;;5.27;4.87;;;;;;;8.50;100.00;99569.69;5054163;28;20193;-76
2023/12/14 04:01:01;;;;;;;5.00;4.60;;;;;;;8.51;100.00;99569.69;5058384;28;20198;-76
2023/12/14 04:03:27;;;;;;;5.40;4.90;;;;;;;8.54;100.00;99568.81;5057012;28;20307;-77
2023/12/14 04:05:52;;;;;;;5.93;5.17;;;;;;;8.56;100.00;99582.53;5056172;28;20862;-75
2023/12/14 04:08:17;;;;;;;6.20;5.70;;;;;;;8.58;100.00;99580.78;5058431;28;20742;-77
2023/12/14 04:10:42;;;;;;;6.50;6.00;;;;;;;8.58;100.00;99580.78;5058174;28;20382;-77
2023/12/14 04:13:08;;;;;;;6.30;5.80;;;;;;;8.60;100.00;99589.38;5059276;28;20194;-75
2023/12/14 04:15:33;;;;;;;6.20;5.70;;;;;;;8.60;100.00;99591.94;5057614;28;20762;-77
2023/12/14 04:17:58;;;;;;;6.90;6.30;;;;;;;8.61;100.00;99600.53;5056022;28;20212;-77
2023/12/14 04:20:24;;;;;;;6.37;5.87;;;;;;;8.63;100.00;99604.78;5058973;28;20182;-77
2023/12/14 04:22:49;;;;;;;6.47;5.97;;;;;;;8.64;100.00;99601.34;5054931;28;20182;-75
2023/12/14 04:25:14;;;;;;;7.37;6.77;;;;;;;8.65;100.00;99602.22;5057697;28;20723;-76
2023/12/14 04:27:40;;;;;;;6.10;5.60;;;;;;;8.67;100.00;99610.78;5059695;28;20213;-76
2023/12/14 04:30:10;;;;;;;6.40;5.90;;;;;;;8.68;100.00;99615.06;5056795;28;20186;-77
2023/12/14 04:32:35;;;;;;;6.43;5.87;;;;;;;8.69;100.00;99616.78;5054283;28;20311;-75
2023/12/14 04:35:00;;;;;;;7.53;6.93;;;;;;;8.69;100.00;99627.09;5057922;28;20209;-77
2023/12/14 04:37:26;;;;;;;7.47;6.93;;;;;;;8.66;100.00;99617.66;5057953;28;20213;-76
2023/12/14 04:39:51;;;;;;;9.37;8.57;;;;;;;8.65;100.00;99626.25;5058538;28;20265;-77
2023/12/14 04:42:16;;;;;;;9.97;9.17;;;;;;;8.63;100.00;99632.31;5057286;28;20693;-76
2023/12/14 04:44:42;;;;;;;8.73;8.03;;;;;;;8.58;100.00;99632.38;5055511;28;20255;-77
2023/12/14 04:47:08;;;;;;;8.87;8.07;;;;;;;8.54;100.00;99638.44;5057399;28;21078;-77
2023/12/14 04:49:33;;;;;;;8.10;7.40;;;;;;;8.50;100.00;99647.06;5058114;28;20638;-76
2023/12/14 04:51:58;;;;;;;7.60;7.00;;;;;;;8.49;100.00;99647.94;5057471;28;20186;-77
2023/12/14 04:54:24;;;;;;;7.00;6.40;;;;;;;8.50;100.00;99652.22;5056355;28;20672;-76
2023/12/14 04:56:50;;;;;;;8.07;7.37;;;;;;;8.49;100.00;99651.38;5056288;28;20673;-76
2023/12/14 04:59:15;;;;;;;8.33;7.63;;;;;;;8.49;100.00;99659.13;5057163;28;20190;-74
2023/12/14 05:01:41;;;;;;;7.27;6.67;;;;;;;8.51;100.00;99664.25;5060820;28;20209;-77
2023/12/14 05:04:06;;;;;;;7.60;6.90;;;;;;;8.52;100.00;99660.81;5060676;28;20197;-76
2023/12/14 05:06:33;;;;;;;6.70;6.20;;;;;;;8.53;100.00;99667.69;5059688;28;20267;-75
2023/12/14 05:08:58;;;;;;;7.00;6.40;;;;;;;8.53;100.00;99672.84;5059684;28;20247;-76
2023/12/14 05:11:24;;;;;;;7.67;7.07;;;;;;;8.52;100.00;99679.72;5061189;28;20284;-76
2023/12/14 05:13:49;;;;;;;7.70;7.10;;;;;;;8.52;100.00;99681.44;5054930;28;20189;-76
2023/12/14 05:16:15;;;;;;;7.67;7.07;;;;;;;8.50;100.00;99688.31;5060521;28;20312;-77
2023/12/14 05:18:40;;;;;;;7.90;7.23;;;;;;;8.49;100.00;99697.81;5060508;28;20188;-77
2023/12/14 05:21:06;;;;;;;7.97;7.33;;;;;;;8.48;100.00;99695.22;5059737;28;20312;-77
2023/12/14 05:23:31;;;;;;;9.27;8.47;;;;;;;8.45;100.00;99706.41;5057603;28;20560;-77
2023/12/14 05:25:57;;;;;;;9.30;8.40;;;;;;;8.43;100.00;99710.72;5061953;28;20216;-76
2023/12/14 05:28:22;;;;;;;8.07;7.47;;;;;;;8.44;100.00;99716.75;5059762;28;20841;-77
2023/12/14 05:30:48;;;;;;;8.13;7.50;;;;;;;8.44;100.00;99720.16;5061015;28;20340;-77
2023/12/14 05:33:13;;;;;;;8.37;7.67;;;;;;;8.46;100.00;99728.75;5060044;28;20190;-75
2023/12/14 05:35:39;;;;;;;7.90;7.23;;;;;;;8.47;100.00;99730.44;5062376;28;20943;-76
2023/12/14 05:38:04;;;;;;;8.73;8.03;;;;;;;8.48;100.00;99732.19;5061543;28;20846;-76
2023/12/14 05:40:29;;;;;;;8.20;7.60;;;;;;;8.50;100.00;99735.63;5059860;28;20659;-76
2023/12/14 05:42:55;;;;;;;8.47;7.67;;;;;;;8.50;100.00;99743.34;5061030;28;20189;-75
2023/12/14 05:45:20;;;;;;;8.53;7.73;;;;;;;8.52;100.00;99745.91;5056109;28;20229;-76
2023/12/14 05:47:46;;;;;;;7.90;7.30;;;;;;;8.53;100.00;99751.06;5058843;28;20196;-76
2023/12/14 05:50:12;;;;;;;8.20;7.50;;;;;;;8.54;100.00;99754.50;5062679;28;20262;-76
2023/12/14 05:52:37;;;;;;;8.60;7.90;;;;;;;8.53;100.00;99756.22;5060541;28;20661;-75
2023/12/14 05:55:04;;;;;;;8.03;7.37;;;;;;;8.55;100.00;99756.19;5061717;28;20213;-77
2023/12/14 05:57:29;;;;;;;8.23;7.47;;;;;;;8.53;100.00;99768.25;5062386;28;20753;-76
2023/12/14 05:59:55;;;;;;;8.80;8.00;;;;;;;8.53;100.00;99774.28;5061712;28;20189;-75
2023/12/14 06:02:20;;;;;;;8.53;7.80;;;;;;;8.52;100.00;99771.69;5056246;28;20189;-76
2023/12/14 06:04:45;;;;;;;9.27;8.47;;;;;;;8.52;100.00;99774.28;5062188;28;20715;-77
2023/12/14 06:07:11;;;;;;;9.40;8.60;;;;;;;8.50;100.00;99782.03;5060763;28;20200;-76
2023/12/14 06:09:36;;;;;;;9.23;8.30;;;;;;;8.47;100.00;99781.19;5059738;28;20663;-76
2023/12/14 06:12:03;;;;;;;8.40;7.70;;;;;;;8.46;100.00;99789.78;5057458;28;20193;-76
2023/12/14 06:14:29;;;;;;;9.40;8.57;;;;;;;8.46;100.00;99803.53;5061537;28;20189;-76
2023/12/14 06:16:54;;;;;;;8.93;8.20;;;;;;;8.45;100.00;99800.97;5057567;28;21310;-76
2023/12/14 06:19:20;;;;;;;8.43;7.63;;;;;;;8.44;100.00;99802.69;5059725;28;20475;-78
2023/12/14 06:21:46;;;;;;;8.90;8.10;;;;;;;8.45;100.00;99808.72;5060389;28;20612;-76
2023/12/14 06:24:12;;;;;;;9.00;8.23;;;;;;;8.46;100.00;99815.56;5058033;28;20211;-77
2023/12/14 06:26:44;;;;;;;9.30;8.50;;;;;;;8.46;100.00;99824.16;5059161;28;20212;-76
2023/12/14 06:29:10;;;;;;;9.63;8.63;;;;;;;8.45;100.00;99827.59;5059438;28;20186;-74
2023/12/14 06:31:37;;;;;;;9.47;8.67;;;;;;;8.44;100.00;99823.31;5055316;28;20200;-78
2023/12/14 06:34:03;;;;;;;9.07;8.30;;;;;;;8.43;100.00;99825.91;5064339;28;20193;-77
2023/12/14 06:36:32;;;;;;;9.47;8.67;;;;;;;8.40;100.00;99839.66;5062494;28;20749;-77
2023/12/14 06:38:59;;;;;;;9.07;8.27;;;;;;;8.39;100.00;99843.97;5062321;28;20235;-78
2023/12/14 06:41:25;;;;;;;9.27;8.40;;;;;;;8.37;100.00;99843.13;5063220;28;20619;-76
2023/12/14 06:43:52;;;;;;;9.97;8.97;;;;;;;8.38;100.00;99846.56;5066684;28;20995;-76
2023/12/14 06:46:17;;;;;;;9.83;8.93;;;;;;;8.37;100.00;99862.91;5060852;28;20216;-76
2023/12/14 06:48:43;;;;;;;10.00;9.03;;;;;;;8.37;100.00;99858.59;5062310;28;20193;-76
2023/12/14 06:51:09;;;;;;;9.53;8.73;;;;;;;8.36;100.00;99853.47;5061862;28;20189;-75
2023/12/14 06:53:35;;;;;;;9.47;8.57;;;;;;;8.34;100.00;99863.78;5055697;28;20220;-76
2023/12/14 06:56:01;;;;;;;9.40;8.60;;;;;;;8.34;100.00;99871.50;5054679;28;20206;-77
2023/12/14 06:58:26;;;;;;;9.43;8.53;;;;;;;8.35;100.00;99882.69;5056554;28;20193;-76
2023/12/14 07:00:51;;;;;;;9.73;8.90;;;;;;;8.33;100.00;99890.41;5053713;28;20611;-76
2023/12/14 07:03:17;;;;;;;10.60;9.60;;;;;;;8.30;100.00;99890.47;5057451;28;20193;-76
2023/12/14 07:05:42;;;;;;;10.27;9.33;;;;;;;8.28;100.00;99894.75;5055703;28;20710;-75
2023/12/14 07:08:07;;;;;;;9.63;8.73;;;;;;;8.26;100.00;99901.66;5058385;28;20209;-76
2023/12/14 07:10:34;;;;;;;9.63;8.77;;;;;;;8.23;100.00;99910.25;5056444;28;20273;-76
2023/12/14 07:12:59;;;;;;;8.97;8.10;;;;;;;8.23;100.00;99915.41;5057727;28;20202;-76
2023/12/14 07:15:24;;;;;;;10.20;9.30;;;;;;;8.22;100.00;99924.00;5061021;28;20202;-76
2023/12/14 07:17:50;;;;;;;10.10;9.20;;;;;;;8.25;100.00;99925.72;5052994;28;20193;-75
2023/12/14 07:20:15;;;;;;;11.00;10.00;;;;;;;8.27;100.00;99926.56;5052552;28;20191;-75
2023/12/14 07:22:41;;;;;;;12.20;11.00;;;;;;;8.27;100.00;99933.44;5051937;28;20251;-76
2023/12/14 07:25:07;;;;;;;12.90;11.70;;;;;;;8.27;100.00;99931.72;5057465;28;20210;-76
2023/12/14 07:27:32;;;;;;;13.13;11.93;;;;;;;8.28;100.00;99933.44;5054225;28;20194;-76
2023/12/14 07:29:57;;;;;;;12.20;11.10;;;;;;;8.28;100.00;99948.91;5051733;28;20205;-75
2023/12/14 07:32:23;;;;;;;11.77;10.67;;;;;;;8.27;100.00;99946.31;5055179;28;20188;-76
2023/12/14 07:34:48;;;;;;;11.27;10.17;;;;;;;8.28;100.00;99955.75;5060126;28;20205;-75
2023/12/14 07:37:13;;;;;;;10.20;9.17;;;;;;;8.30;100.00;99962.66;5058759;28;20192;-75
2023/12/14 07:39:38;;;;;;;11.23;10.23;;;;;;;8.33;100.00;99972.09;5060118;28;20888;-77
2023/12/14 07:42:05;;;;;;;10.73;9.73;;;;;;;8.35;100.00;99972.94;5058399;28;20672;-78
2023/12/14 07:44:30;;;;;;;10.40;9.47;;;;;;;8.33;100.00;99975.50;5060625;28;20199;-76
2023/12/14 07:46:57;;;;;;;10.03;9.13;;;;;;;8.36;100.00;99987.53;5058892;28;20185;-76
2023/12/14 07:49:23;;;;;;;9.97;9.07;;;;;;;8.39;100.00;99988.38;5052706;28;20231;-74
2023/12/14 07:51:49;;;;;;;10.90;9.80;;;;;;;8.43;100.00;99978.91;5060693;28;20589;-76
2023/12/14 07:54:14;;;;;;;10.37;9.37;;;;;;;8.44;100.00;99984.94;5059077;28;20185;-75
2023/12/14 07:56:40;;;;;;;9.83;8.93;;;;;;;8.44;100.00;99990.09;5060897;28;20229;-76
2023/12/14 07:59:07;;;;;;;10.53;9.53;;;;;;;8.44;100.00;99998.66;5058128;28;20308;-77
2023/12/14 08:01:33;;;;;;;10.23;9.33;;;;;;;8.44;100.00;100001.25;5057854;28;20254;-76
2023/12/14 08:03:59;;;;;;;9.83;8.93;;;;;;;8.44;100.00;100003.81;5056514;28;20566;-76
2023/12/14 08:06:24;;;;;;;10.80;9.87;;;;;;;8.47;100.00;100002.97;5058082;28;20210;-77
2023/12/14 08:08:49;;;;;;;10.77;9.77;;;;;;;8.49;100.00;100008.97;5058085;28;20193;-77
2023/12/14 08:11:15;;;;;;;11.53;10.43;;;;;;;8.50;100.00;100011.56;5058889;28;20243;-77
2023/12/14 08:13:40;;;;;;;11.00;10.00;;;;;;;8.49;100.00;100016.72;5059062;28;20182;-76
2023/12/14 08:16:07;;;;;;;10.40;9.60;;;;;;;8.49;100.00;100025.34;5057517;28;20213;-76
2023/12/14 08:18:32;;;;;;;10.83;9.83;;;;;;;8.52;100.00;100032.19;5057382;28;20239;-77
2023/12/14 08:20:58;;;;;;;10.80;9.90;;;;;;;8.50;100.00;100039.94;5059825;28;20589;-77
2023/12/14 08:23:27;;;;;;;11.40;10.30;;;;;;;8.52;100.00;100047.66;5056197;28;20272;-75
2023/12/14 08:25:52;;;;;;;12.40;11.30;;;;;;;8.56;100.00;100057.09;5056737;28;20205;-77
2023/12/14 08:28:17;;;;;;;10.37;9.47;;;;;;;8.54;100.00;100059.72;5059797;28;20203;-76
2023/12/14 08:30:43;;;;;;;10.77;9.80;;;;;;;8.57;100.00;100056.25;5058679;28;20269;-75
2023/12/14 08:33:08;;;;;;;11.83;10.73;;;;;;;8.59;100.00;100061.38;5056081;28;20218;-77
2023/12/14 08:35:34;;;;;;;11.80;10.60;;;;;;;8.59;100.00;100067.41;5051480;28;20201;-77
2023/12/14 08:37:59;;;;;;;10.20;9.30;;;;;;;8.61;100.00;100075.13;5054697;28;20197;-77
2023/12/14 08:40:24;;;;;;;9.67;8.77;;;;;;;8.64;100.00;100081.13;5053968;28;20193;-76
2023/12/14 08:42:50;;;;;;;10.27;9.30;;;;;;;8.69;100.00;100083.72;5051539;28;20287;-74
2023/12/14 08:45:15;;;;;;;9.90;8.90;;;;;;;8.77;100.00;100091.44;5053660;28;20234;-74
2023/12/14 08:47:41;;;;;;;10.47;9.57;;;;;;;8.79;100.00;100102.56;5052066;28;20186;-77
2023/12/14 08:50:07;;;;;;;9.50;8.70;;;;;;;8.81;100.00;100112.03;5059921;28;20259;-76
2023/12/14 08:52:33;;;;;;;10.80;9.83;;;;;;;8.87;100.00;100118.91;5057845;28;20183;-77
2023/12/14 08:54:58;;;;;;;9.73;8.87;;;;;;;8.97;100.00;100130.03;5060677;28;20255;-76
2023/12/14 08:57:24;;;;;;;11.00;10.03;;;;;;;9.06;100.00;100123.97;5055011;28;20273;-76
2023/12/14 08:59:49;;;;;;;9.80;8.90;;;;;;;9.11;100.00;100122.19;5059013;28;20209;-76
2023/12/14 09:02:14;;;;;;;9.70;8.90;;;;;;;9.15;100.00;100137.66;5061221;28;20662;-76
2023/12/14 09:04:40;;;;;;;9.00;8.20;;;;;;;9.24;100.00;100147.06;5056061;28;20769;-76
2023/12/14 09:07:05;;;;;;;9.70;8.80;;;;;;;9.34;100.00;100141.88;5062436;28;20678;-77
2023/12/14 09:09:32;;;;;;;9.00;8.20;;;;;;;9.43;100.00;100149.56;5058203;28;20195;-77
2023/12/14 09:11:58;;;;;;;8.53;7.80;;;;;;;9.50;100.00;100152.97;5057505;28;20286;-77
2023/12/14 09:14:23;;;;;;;8.60;7.80;;;;;;;9.57;100.00;100159.81;5061949;28;20276;-76
2023/12/14 09:16:48;;;;;;;9.23;8.43;;;;;;;9.65;100.00;100154.59;5060723;28;20212;-76
2023/12/14 09:19:14;;;;;;;9.27;8.27;;;;;;;9.68;100.00;100152.84;5059688;28;20186;-77
2023/12/14 09:21:39;;;;;;;9.57;8.70;;;;;;;9.69;100.00;100145.91;5053772;28;20194;-77
2023/12/14 09:24:04;;;;;;;9.43;8.63;;;;;;;9.70;100.00;100147.63;5051876;28;20235;-76
2023/12/14 09:26:30;;;;;;;8.90;8.20;;;;;;;9.74;100.00;100163.13;5050052;28;20218;-76
2023/12/14 09:28:55;;;;;;;7.97;7.37;;;;;;;9.85;100.00;100173.38;5051432;28;20621;-76
2023/12/14 09:31:20;;;;;;;9.47;8.60;;;;;;;9.97;100.00;100192.25;5052605;28;20213;-76
2023/12/14 09:33:46;;;;;;;9.37;8.57;;;;;;;10.04;100.00;100193.91;5053214;28;20202;-77
2023/12/14 09:36:11;;;;;;;8.23;7.57;;;;;;;10.05;100.00;100199.09;5053158;28;20208;-77
2023/12/14 09:38:36;;;;;;;8.90;8.10;;;;;;;10.01;100.00;100197.38;5055585;28;20190;-77
2023/12/14 09:41:02;;;;;;;9.23;8.53;;;;;;;9.98;100.00;100204.31;5056375;28;20309;-77
2023/12/14 09:43:28;;;;;;;7.57;6.97;;;;;;;9.96;100.00;100212.06;5055313;28;20190;-76
2023/12/14 09:45:55;;;;;;;7.90;7.20;;;;;;;9.95;100.00;100222.44;5050705;28;20213;-76
2023/12/14 09:48:22;;;;;;;7.77;7.07;;;;;;;9.95;100.00;100225.84;5053634;28;20281;-77
2023/12/14 09:50:49;;;;;;;7.50;6.80;;;;;;;9.97;100.00;100231.88;5053962;28;20194;-77
2023/12/14 09:53:14;;;;;;;7.73;7.03;;;;;;;9.99;100.00;100230.16;5054200;28;20182;-77
2023/12/14 09:55:40;;;;;;;7.37;6.73;;;;;;;10.05;100.00;100239.56;5060125;28;20217;-76
2023/12/14 09:58:06;;;;;;;7.70;7.07;;;;;;;10.07;100.00;100245.59;5059432;28;20198;-76
2023/12/14 10:00:37;;;;;;;8.03;7.33;;;;;;;10.11;100.00;100242.13;5057614;28;20281;-77
2023/12/14 10:03:17;;;;;;;7.40;6.80;;;;;;;10.13;100.00;100240.41;5060183;28;20212;-77
2023/12/14 10:05:42;;;;;;;8.13;7.43;;;;;;;10.13;100.00;100240.41;5059021;28;20202;-76
2023/12/14 10:08:08;;;;;;;7.90;7.20;;;;;;;10.13;100.00;100242.09;5060655;28;20223;-76
2023/12/14 10:10:34;;;;;;;7.70;7.00;;;;;;;10.14;100.00;100242.09;5057549;28;20252;-77
2023/12/14 10:12:59;;;;;;;7.47;6.73;;;;;;;10.15;100.00;100242.97;5058657;28;20276;-76
2023/12/14 10:15:26;;;;;;;8.20;7.50;;;;;;;10.17;100.00;100248.97;5060190;28;21010;-77
2023/12/14 10:17:54;;;;;;;8.17;7.47;;;;;;;10.21;100.00;100250.66;5059150;28;20193;-77
2023/12/14 10:20:23;;;;;;;8.27;7.57;;;;;;;10.28;100.00;100254.91;5054312;28;20228;-77
2023/12/14 10:22:49;;;;;;;8.87;7.97;;;;;;;10.40;100.00;100261.75;5053829;28;21792;-77
2023/12/14 10:25:15;;;;;;;7.60;7.00;;;;;;;10.54;100.00;100263.34;5056379;28;20207;-76
2023/12/14 10:27:40;;;;;;;7.70;7.00;;;;;;;10.69;100.00;100265.81;5058254;28;20275;-77
2023/12/14 10:30:08;;;;;;;7.30;6.70;;;;;;;10.80;100.00;100261.38;5055940;28;20201;-76
2023/12/14 10:32:34;;;;;;;8.30;7.60;;;;;;;10.88;100.00;100269.06;5052296;28;20790;-77
2023/12/14 10:34:59;;;;;;;8.10;7.50;;;;;;;10.93;100.00;100269.88;5051654;28;20206;-77
2023/12/14 10:37:25;;;;;;;7.80;7.20;;;;;;;10.93;100.00;100272.47;5052005;28;20224;-76
2023/12/14 10:39:53;;;;;;;7.63;7.03;;;;;;;10.95;100.00;100265.53;5056212;28;20190;-76
2023/12/14 10:42:21;;;;;;;7.13;6.63;;;;;;;10.98;100.00;100262.03;5053764;28;20186;-76
2023/12/14 10:44:51;;;;;;;7.40;6.80;;;;;;;11.03;100.00;100267.16;5055532;28;20187;-75
2023/12/14 10:47:18;;;;;;;8.87;8.10;;;;;;;11.04;100.00;100274.06;5058715;28;20186;-77
2023/12/14 10:49:49;;;;;;;9.53;8.63;;;;;;;11.09;100.00;100283.50;5060218;28;20191;-76
2023/12/14 10:52:15;;;;;;;8.40;7.67;;;;;;;11.15;100.00;100281.72;5057611;28;20920;-76
2023/12/14 10:54:41;;;;;;;9.00;8.20;;;;;;;11.20;100.00;100279.91;5059365;28;20184;-76
2023/12/14 10:57:08;;;;;;;7.53;6.93;;;;;;;11.23;100.00;100282.47;5059602;28;20218;-77
2023/12/14 10:59:34;;;;;;;8.40;7.70;;;;;;;11.22;100.00;100291.13;5058099;28;20193;-76
2023/12/14 11:02:09;;;;;;;7.60;7.00;;;;;;;11.22;100.00;100289.41;5059129;28;20195;-75
2023/12/14 11:04:55;;;;;;;8.07;7.37;;;;;;;11.17;100.00;100293.78;5051999;28;20185;-76
2023/12/14 11:07:47;;;;;;;8.00;7.30;;;;;;;11.07;100.00;100295.59;5061254;28;20566;-77
2023/12/14 11:10:13;;;;;;;7.53;6.83;;;;;;;10.97;100.00;100300.00;5065051;28;20273;-76
2023/12/14 11:12:50;;;;;;;7.47;6.87;;;;;;;10.91;100.00;100309.56;5059520;28;20242;-76
2023/12/14 11:15:18;;;;;;;7.53;6.93;;;;;;;10.87;100.00;100315.69;5060428;28;20268;-74
2023/12/14 11:18:12;;;;;;;7.80;7.20;;;;;;;10.83;100.00;100318.28;5056435;28;20194;-76
2023/12/14 11:20:57;;;;;;;7.60;6.90;;;;;;;10.85;100.00;100314.84;5056769;28;20223;-74
2023/12/14 11:23:25;;;;;;;7.73;6.93;;;;;;;10.87;100.00;100323.44;5054678;28;20193;-76